sensor_id;sensor_type;location;lat;lon;timestamp;P1;durP1;ratioP1;P2;durP2;ratioP2
26407;SDS011;14583;43.604;1.364;2022-07-19T00:00:16;9.27;;;2.95;;
26407;SDS011;14583;43.604;1.364;2022-07-19T00:02:43;3.35;;;2.90;;
26407;SDS011;14583;43.604;1.364;2022-07-19T00:05:09;4.05;;;3.17;;
26407;SDS011;14583;43.604;1.364;2022-07-19T00:07:36;4.00;;;3.08;;
26407;SDS011;14583;43.604;1.364;2022-07-19T00:10:03;3.90;;;3.10;;
26407;SDS011;14583;43.604;1.364;2022-07-19T00:12:31;5.82;;;3.08;;
26407;SDS011;14583;43.604;1.364;2022-07-19T00:14:57;7.13;;;2.85;;
26407;SDS011;14583;43.604;1.364;2022-07-19T00:17:23;4.65;;;2.80;;
26407;SDS011;14583;43.604;1.364;2022-07-19T00:19:49;4.50;;;2.97;;
26407;SDS011;14583;43.604;1.364;2022-07-19T00:22:15;4.00;;;2.90;;
26407;SDS011;14583;43.604;1.364;2022-07-19T00:24:40;3.92;;;3.05;;
26407;SDS011;14583;43.604;1.364;2022-07-19T00:27:06;4.45;;;2.60;;
26407;SDS011;14583;43.604;1.364;2022-07-19T00:29:35;4.78;;;3.10;;
26407;SDS011;14583;43.604;1.364;2022-07-19T00:32:00;4.13;;;2.95;;
26407;SDS011;14583;43.604;1.364;2022-07-19T00:34:26;4.05;;;2.78;;
26407;SDS011;14583;43.604;1.364;2022-07-19T00:36:52;3.92;;;2.70;;
26407;SDS011;14583;43.604;1.364;2022-07-19T00:39:17;6.53;;;3.17;;
26407;SDS011;14583;43.604;1.364;2022-07-19T00:41:43;3.83;;;2.78;;
26407;SDS011;14583;43.604;1.364;2022-07-19T00:44:10;4.18;;;3.03;;
26407;SDS011;14583;43.604;1.364;2022-07-19T00:46:36;5.10;;;2.67;;
26407;SDS011;14583;43.604;1.364;2022-07-19T00:49:03;5.55;;;2.85;;
26407;SDS011;14583;43.604;1.364;2022-07-19T00:51:30;3.30;;;2.80;;
26407;SDS011;14583;43.604;1.364;2022-07-19T00:54:00;3.83;;;2.88;;
26407;SDS011;14583;43.604;1.364;2022-07-19T00:56:26;8.27;;;2.97;;
26407;SDS011;14583;43.604;1.364;2022-07-19T00:58:52;10.88;;;3.45;;
26407;SDS011;14583;43.604;1.364;2022-07-19T01:01:19;7.60;;;3.55;;
26407;SDS011;14583;43.604;1.364;2022-07-19T01:03:45;4.13;;;3.00;;
26407;SDS011;14583;43.604;1.364;2022-07-19T01:06:12;4.25;;;2.80;;
26407;SDS011;14583;43.604;1.364;2022-07-19T01:08:37;6.22;;;3.20;;
26407;SDS011;14583;43.604;1.364;2022-07-19T01:11:04;5.43;;;3.45;;
26407;SDS011;14583;43.604;1.364;2022-07-19T01:13:31;7.93;;;2.78;;
26407;SDS011;14583;43.604;1.364;2022-07-19T01:15:57;4.43;;;3.22;;
26407;SDS011;14583;43.604;1.364;2022-07-19T01:18:23;5.28;;;3.38;;
26407;SDS011;14583;43.604;1.364;2022-07-19T01:20:49;3.85;;;3.05;;
26407;SDS011;14583;43.604;1.364;2022-07-19T01:23:16;4.60;;;3.10;;
26407;SDS011;14583;43.604;1.364;2022-07-19T01:25:41;8.70;;;3.10;;
26407;SDS011;14583;43.604;1.364;2022-07-19T01:28:07;7.00;;;3.53;;
26407;SDS011;14583;43.604;1.364;2022-07-19T01:30:33;4.60;;;2.80;;
26407;SDS011;14583;43.604;1.364;2022-07-19T01:32:59;6.07;;;2.90;;
26407;SDS011;14583;43.604;1.364;2022-07-19T01:35:26;5.68;;;3.50;;
26407;SDS011;14583;43.604;1.364;2022-07-19T01:37:52;10.95;;;3.28;;
26407;SDS011;14583;43.604;1.364;2022-07-19T01:40:18;7.40;;;3.10;;
26407;SDS011;14583;43.604;1.364;2022-07-19T01:42:44;6.35;;;3.30;;
26407;SDS011;14583;43.604;1.364;2022-07-19T01:45:11;5.72;;;3.15;;
26407;SDS011;14583;43.604;1.364;2022-07-19T01:47:38;6.70;;;3.53;;
26407;SDS011;14583;43.604;1.364;2022-07-19T01:50:06;5.50;;;3.25;;
26407;SDS011;14583;43.604;1.364;2022-07-19T01:52:33;5.60;;;3.13;;
26407;SDS011;14583;43.604;1.364;2022-07-19T01:54:59;6.85;;;3.40;;
26407;SDS011;14583;43.604;1.364;2022-07-19T01:57:24;5.35;;;3.10;;
26407;SDS011;14583;43.604;1.364;2022-07-19T01:59:52;4.22;;;2.92;;
26407;SDS011;14583;43.604;1.364;2022-07-19T02:02:17;5.03;;;3.30;;
26407;SDS011;14583;43.604;1.364;2022-07-19T02:04:43;3.92;;;3.38;;
26407;SDS011;14583;43.604;1.364;2022-07-19T02:07:09;6.60;;;3.70;;
26407;SDS011;14583;43.604;1.364;2022-07-19T02:09:34;4.30;;;3.45;;
26407;SDS011;14583;43.604;1.364;2022-07-19T02:12:00;5.47;;;3.55;;
26407;SDS011;14583;43.604;1.364;2022-07-19T02:14:26;4.95;;;3.28;;
26407;SDS011;14583;43.604;1.364;2022-07-19T02:16:52;6.57;;;3.63;;
26407;SDS011;14583;43.604;1.364;2022-07-19T02:19:17;7.45;;;3.78;;
26407;SDS011;14583;43.604;1.364;2022-07-19T02:21:43;4.38;;;3.20;;
26407;SDS011;14583;43.604;1.364;2022-07-19T02:24:09;5.63;;;3.78;;
26407;SDS011;14583;43.604;1.364;2022-07-19T02:26:35;9.52;;;4.43;;
26407;SDS011;14583;43.604;1.364;2022-07-19T02:29:01;6.15;;;3.60;;
26407;SDS011;14583;43.604;1.364;2022-07-19T02:31:27;4.13;;;3.78;;
26407;SDS011;14583;43.604;1.364;2022-07-19T02:33:52;9.30;;;4.32;;
26407;SDS011;14583;43.604;1.364;2022-07-19T02:36:18;5.05;;;4.07;;
26407;SDS011;14583;43.604;1.364;2022-07-19T02:38:44;8.85;;;4.47;;
26407;SDS011;14583;43.604;1.364;2022-07-19T02:41:10;5.53;;;4.18;;
26407;SDS011;14583;43.604;1.364;2022-07-19T02:43:36;7.93;;;4.50;;
26407;SDS011;14583;43.604;1.364;2022-07-19T02:46:02;8.70;;;4.30;;
26407;SDS011;14583;43.604;1.364;2022-07-19T02:48:28;7.95;;;4.60;;
26407;SDS011;14583;43.604;1.364;2022-07-19T02:50:53;7.72;;;4.57;;
26407;SDS011;14583;43.604;1.364;2022-07-19T02:53:19;6.65;;;4.80;;
26407;SDS011;14583;43.604;1.364;2022-07-19T02:55:45;6.32;;;4.28;;
26407;SDS011;14583;43.604;1.364;2022-07-19T02:58:11;6.57;;;4.13;;
26407;SDS011;14583;43.604;1.364;2022-07-19T03:00:36;4.95;;;4.40;;
26407;SDS011;14583;43.604;1.364;2022-07-19T03:03:02;14.65;;;5.68;;
26407;SDS011;14583;43.604;1.364;2022-07-19T03:05:47;5.95;;;4.28;;
26407;SDS011;14583;43.604;1.364;2022-07-19T03:08:14;5.15;;;4.05;;
26407;SDS011;14583;43.604;1.364;2022-07-19T03:10:40;7.38;;;4.20;;
26407;SDS011;14583;43.604;1.364;2022-07-19T03:13:06;7.93;;;4.53;;
26407;SDS011;14583;43.604;1.364;2022-07-19T03:15:33;5.78;;;4.20;;
26407;SDS011;14583;43.604;1.364;2022-07-19T03:18:00;5.25;;;4.65;;
26407;SDS011;14583;43.604;1.364;2022-07-19T03:20:26;6.18;;;4.65;;
26407;SDS011;14583;43.604;1.364;2022-07-19T03:22:51;6.70;;;4.22;;
26407;SDS011;14583;43.604;1.364;2022-07-19T03:25:17;7.68;;;4.50;;
26407;SDS011;14583;43.604;1.364;2022-07-19T03:27:43;6.43;;;4.45;;
26407;SDS011;14583;43.604;1.364;2022-07-19T03:30:08;5.75;;;4.53;;
26407;SDS011;14583;43.604;1.364;2022-07-19T03:32:34;5.95;;;4.20;;
26407;SDS011;14583;43.604;1.364;2022-07-19T03:35:00;10.63;;;4.78;;
26407;SDS011;14583;43.604;1.364;2022-07-19T03:37:26;6.65;;;4.50;;
26407;SDS011;14583;43.604;1.364;2022-07-19T03:39:52;8.35;;;4.70;;
26407;SDS011;14583;43.604;1.364;2022-07-19T03:42:18;6.43;;;4.32;;
26407;SDS011;14583;43.604;1.364;2022-07-19T03:44:43;6.78;;;4.47;;
26407;SDS011;14583;43.604;1.364;2022-07-19T03:47:09;6.55;;;4.72;;
26407;SDS011;14583;43.604;1.364;2022-07-19T03:49:35;5.25;;;4.57;;
26407;SDS011;14583;43.604;1.364;2022-07-19T03:52:00;5.68;;;4.47;;
26407;SDS011;14583;43.604;1.364;2022-07-19T03:54:26;6.25;;;4.30;;
26407;SDS011;14583;43.604;1.364;2022-07-19T03:56:52;6.07;;;4.38;;
26407;SDS011;14583;43.604;1.364;2022-07-19T03:59:17;5.10;;;4.40;;
26407;SDS011;14583;43.604;1.364;2022-07-19T04:01:43;6.90;;;4.60;;
26407;SDS011;14583;43.604;1.364;2022-07-19T04:04:09;9.25;;;4.82;;
26407;SDS011;14583;43.604;1.364;2022-07-19T04:06:34;6.03;;;4.53;;
26407;SDS011;14583;43.604;1.364;2022-07-19T04:09:00;8.15;;;4.63;;
26407;SDS011;14583;43.604;1.364;2022-07-19T04:11:26;8.50;;;4.70;;
26407;SDS011;14583;43.604;1.364;2022-07-19T04:13:51;9.63;;;4.82;;
26407;SDS011;14583;43.604;1.364;2022-07-19T04:16:17;5.55;;;4.50;;
26407;SDS011;14583;43.604;1.364;2022-07-19T04:18:42;6.63;;;4.70;;
26407;SDS011;14583;43.604;1.364;2022-07-19T04:21:08;5.53;;;4.25;;
26407;SDS011;14583;43.604;1.364;2022-07-19T04:23:34;7.70;;;4.47;;
26407;SDS011;14583;43.604;1.364;2022-07-19T04:25:59;9.00;;;4.90;;
26407;SDS011;14583;43.604;1.364;2022-07-19T04:28:25;7.57;;;4.45;;
26407;SDS011;14583;43.604;1.364;2022-07-19T04:30:51;6.30;;;4.78;;
26407;SDS011;14583;43.604;1.364;2022-07-19T04:33:17;7.88;;;4.68;;
26407;SDS011;14583;43.604;1.364;2022-07-19T04:35:44;6.70;;;4.50;;
26407;SDS011;14583;43.604;1.364;2022-07-19T04:38:10;7.65;;;4.70;;
26407;SDS011;14583;43.604;1.364;2022-07-19T04:40:36;6.22;;;4.72;;
26407;SDS011;14583;43.604;1.364;2022-07-19T04:43:02;8.77;;;4.80;;
26407;SDS011;14583;43.604;1.364;2022-07-19T04:45:28;5.57;;;4.80;;
26407;SDS011;14583;43.604;1.364;2022-07-19T04:47:54;6.50;;;4.90;;
26407;SDS011;14583;43.604;1.364;2022-07-19T04:50:20;5.70;;;4.90;;
26407;SDS011;14583;43.604;1.364;2022-07-19T04:52:46;10.63;;;4.97;;
26407;SDS011;14583;43.604;1.364;2022-07-19T04:55:12;13.57;;;5.70;;
26407;SDS011;14583;43.604;1.364;2022-07-19T04:57:38;8.32;;;4.65;;
26407;SDS011;14583;43.604;1.364;2022-07-19T05:00:05;6.32;;;4.47;;
26407;SDS011;14583;43.604;1.364;2022-07-19T05:02:34;5.15;;;4.28;;
26407;SDS011;14583;43.604;1.364;2022-07-19T05:05:00;8.57;;;4.50;;
26407;SDS011;14583;43.604;1.364;2022-07-19T05:07:25;6.80;;;4.75;;
26407;SDS011;14583;43.604;1.364;2022-07-19T05:09:51;9.10;;;4.35;;
26407;SDS011;14583;43.604;1.364;2022-07-19T05:12:17;8.75;;;4.80;;
26407;SDS011;14583;43.604;1.364;2022-07-19T05:14:43;9.88;;;5.28;;
26407;SDS011;14583;43.604;1.364;2022-07-19T05:17:08;15.63;;;5.38;;
26407;SDS011;14583;43.604;1.364;2022-07-19T05:19:34;9.80;;;5.20;;
26407;SDS011;14583;43.604;1.364;2022-07-19T05:22:00;11.35;;;8.38;;
26407;SDS011;14583;43.604;1.364;2022-07-19T05:24:26;7.18;;;6.10;;
26407;SDS011;14583;43.604;1.364;2022-07-19T05:26:51;11.45;;;5.28;;
26407;SDS011;14583;43.604;1.364;2022-07-19T05:29:17;6.22;;;4.40;;
26407;SDS011;14583;43.604;1.364;2022-07-19T05:31:43;6.32;;;4.65;;
26407;SDS011;14583;43.604;1.364;2022-07-19T05:34:08;6.68;;;4.30;;
26407;SDS011;14583;43.604;1.364;2022-07-19T05:36:34;6.90;;;4.50;;
26407;SDS011;14583;43.604;1.364;2022-07-19T05:39:00;9.57;;;4.57;;
26407;SDS011;14583;43.604;1.364;2022-07-19T05:41:26;7.25;;;4.88;;
26407;SDS011;14583;43.604;1.364;2022-07-19T05:43:51;7.50;;;4.15;;
26407;SDS011;14583;43.604;1.364;2022-07-19T05:46:17;10.85;;;5.00;;
26407;SDS011;14583;43.604;1.364;2022-07-19T05:48:43;6.63;;;4.60;;
26407;SDS011;14583;43.604;1.364;2022-07-19T05:51:09;14.18;;;4.25;;
26407;SDS011;14583;43.604;1.364;2022-07-19T05:53:36;12.32;;;4.45;;
26407;SDS011;14583;43.604;1.364;2022-07-19T05:56:02;9.57;;;4.55;;
26407;SDS011;14583;43.604;1.364;2022-07-19T05:58:28;9.32;;;4.40;;
26407;SDS011;14583;43.604;1.364;2022-07-19T06:00:54;5.93;;;4.10;;
26407;SDS011;14583;43.604;1.364;2022-07-19T06:03:38;6.53;;;4.38;;
26407;SDS011;14583;43.604;1.364;2022-07-19T06:06:04;8.18;;;4.45;;
26407;SDS011;14583;43.604;1.364;2022-07-19T06:08:30;7.45;;;4.15;;
26407;SDS011;14583;43.604;1.364;2022-07-19T06:10:56;7.72;;;4.90;;
26407;SDS011;14583;43.604;1.364;2022-07-19T06:13:22;6.80;;;4.60;;
26407;SDS011;14583;43.604;1.364;2022-07-19T06:15:48;6.70;;;5.05;;
26407;SDS011;14583;43.604;1.364;2022-07-19T06:18:15;6.15;;;4.68;;
26407;SDS011;14583;43.604;1.364;2022-07-19T06:20:41;6.20;;;4.80;;
26407;SDS011;14583;43.604;1.364;2022-07-19T06:23:06;7.45;;;4.53;;
26407;SDS011;14583;43.604;1.364;2022-07-19T06:25:32;9.43;;;4.13;;
26407;SDS011;14583;43.604;1.364;2022-07-19T06:27:58;9.73;;;5.05;;
26407;SDS011;14583;43.604;1.364;2022-07-19T06:30:24;5.90;;;4.30;;
26407;SDS011;14583;43.604;1.364;2022-07-19T06:32:50;6.97;;;4.65;;
26407;SDS011;14583;43.604;1.364;2022-07-19T06:35:16;7.53;;;4.25;;
26407;SDS011;14583;43.604;1.364;2022-07-19T06:37:41;7.22;;;4.63;;
26407;SDS011;14583;43.604;1.364;2022-07-19T06:40:07;5.03;;;3.90;;
26407;SDS011;14583;43.604;1.364;2022-07-19T06:42:33;8.77;;;4.60;;
26407;SDS011;14583;43.604;1.364;2022-07-19T06:44:59;9.52;;;4.65;;
26407;SDS011;14583;43.604;1.364;2022-07-19T06:47:27;9.73;;;4.28;;
26407;SDS011;14583;43.604;1.364;2022-07-19T06:49:54;5.53;;;4.65;;
26407;SDS011;14583;43.604;1.364;2022-07-19T06:52:19;9.52;;;5.45;;
26407;SDS011;14583;43.604;1.364;2022-07-19T06:54:45;6.32;;;4.20;;
26407;SDS011;14583;43.604;1.364;2022-07-19T06:57:11;8.68;;;4.47;;
26407;SDS011;14583;43.604;1.364;2022-07-19T06:59:37;7.10;;;4.38;;
26407;SDS011;14583;43.604;1.364;2022-07-19T07:02:03;10.18;;;4.65;;
26407;SDS011;14583;43.604;1.364;2022-07-19T07:04:29;7.93;;;4.40;;
26407;SDS011;14583;43.604;1.364;2022-07-19T07:06:57;13.27;;;5.03;;
26407;SDS011;14583;43.604;1.364;2022-07-19T07:09:23;8.32;;;4.45;;
26407;SDS011;14583;43.604;1.364;2022-07-19T07:11:51;8.02;;;4.60;;
26407;SDS011;14583;43.604;1.364;2022-07-19T07:14:17;6.53;;;4.78;;
26407;SDS011;14583;43.604;1.364;2022-07-19T07:16:43;10.18;;;4.88;;
26407;SDS011;14583;43.604;1.364;2022-07-19T07:19:09;11.40;;;5.75;;
26407;SDS011;14583;43.604;1.364;2022-07-19T07:21:34;7.80;;;4.40;;
26407;SDS011;14583;43.604;1.364;2022-07-19T07:24:04;9.65;;;4.20;;
26407;SDS011;14583;43.604;1.364;2022-07-19T07:26:30;11.07;;;4.68;;
26407;SDS011;14583;43.604;1.364;2022-07-19T07:28:56;7.53;;;4.13;;
26407;SDS011;14583;43.604;1.364;2022-07-19T07:31:22;11.70;;;4.68;;
26407;SDS011;14583;43.604;1.364;2022-07-19T07:33:48;9.63;;;4.30;;
26407;SDS011;14583;43.604;1.364;2022-07-19T07:36:15;6.75;;;4.32;;
26407;SDS011;14583;43.604;1.364;2022-07-19T07:38:41;11.25;;;4.43;;
26407;SDS011;14583;43.604;1.364;2022-07-19T07:41:06;6.13;;;4.38;;
26407;SDS011;14583;43.604;1.364;2022-07-19T07:43:32;5.80;;;4.20;;
26407;SDS011;14583;43.604;1.364;2022-07-19T07:45:58;8.02;;;4.25;;
26407;SDS011;14583;43.604;1.364;2022-07-19T07:48:24;8.45;;;4.05;;
26407;SDS011;14583;43.604;1.364;2022-07-19T07:50:50;4.95;;;4.28;;
26407;SDS011;14583;43.604;1.364;2022-07-19T07:53:15;9.70;;;4.43;;
26407;SDS011;14583;43.604;1.364;2022-07-19T07:55:41;5.68;;;4.57;;
26407;SDS011;14583;43.604;1.364;2022-07-19T07:58:07;6.70;;;4.50;;
26407;SDS011;14583;43.604;1.364;2022-07-19T08:00:34;11.65;;;4.90;;
26407;SDS011;14583;43.604;1.364;2022-07-19T08:03:00;11.57;;;4.28;;
26407;SDS011;14583;43.604;1.364;2022-07-19T08:05:26;8.23;;;4.30;;
26407;SDS011;14583;43.604;1.364;2022-07-19T08:07:52;8.00;;;4.82;;
26407;SDS011;14583;43.604;1.364;2022-07-19T08:10:19;7.13;;;4.30;;
26407;SDS011;14583;43.604;1.364;2022-07-19T08:12:46;6.25;;;4.18;;
26407;SDS011;14583;43.604;1.364;2022-07-19T08:15:12;7.47;;;4.55;;
26407;SDS011;14583;43.604;1.364;2022-07-19T08:17:37;6.00;;;4.60;;
26407;SDS011;14583;43.604;1.364;2022-07-19T08:20:03;5.85;;;4.82;;
26407;SDS011;14583;43.604;1.364;2022-07-19T08:22:29;7.70;;;4.43;;
26407;SDS011;14583;43.604;1.364;2022-07-19T08:24:55;7.15;;;5.03;;
26407;SDS011;14583;43.604;1.364;2022-07-19T08:27:20;8.20;;;4.57;;
26407;SDS011;14583;43.604;1.364;2022-07-19T08:29:46;6.80;;;5.00;;
26407;SDS011;14583;43.604;1.364;2022-07-19T08:32:12;9.15;;;4.97;;
26407;SDS011;14583;43.604;1.364;2022-07-19T08:34:37;10.25;;;5.45;;
26407;SDS011;14583;43.604;1.364;2022-07-19T08:37:03;11.68;;;8.55;;
26407;SDS011;14583;43.604;1.364;2022-07-19T08:39:29;11.15;;;6.55;;
26407;SDS011;14583;43.604;1.364;2022-07-19T08:41:55;7.40;;;5.57;;
26407;SDS011;14583;43.604;1.364;2022-07-19T08:44:21;19.15;;;6.10;;
26407;SDS011;14583;43.604;1.364;2022-07-19T08:46:47;11.20;;;5.70;;
26407;SDS011;14583;43.604;1.364;2022-07-19T08:49:14;9.27;;;5.97;;
26407;SDS011;14583;43.604;1.364;2022-07-19T08:51:41;9.77;;;5.82;;
26407;SDS011;14583;43.604;1.364;2022-07-19T08:54:06;16.70;;;6.90;;
26407;SDS011;14583;43.604;1.364;2022-07-19T08:56:32;11.75;;;6.78;;
26407;SDS011;14583;43.604;1.364;2022-07-19T08:59:17;16.55;;;6.40;;
26407;SDS011;14583;43.604;1.364;2022-07-19T09:01:42;16.77;;;6.85;;
26407;SDS011;14583;43.604;1.364;2022-07-19T09:04:21;10.77;;;6.95;;
26407;SDS011;14583;43.604;1.364;2022-07-19T09:06:48;11.75;;;6.70;;
26407;SDS011;14583;43.604;1.364;2022-07-19T09:09:19;12.68;;;6.30;;
26407;SDS011;14583;43.604;1.364;2022-07-19T09:11:48;14.75;;;6.55;;
26407;SDS011;14583;43.604;1.364;2022-07-19T09:14:16;15.30;;;7.25;;
26407;SDS011;14583;43.604;1.364;2022-07-19T09:16:48;16.85;;;7.72;;
26407;SDS011;14583;43.604;1.364;2022-07-19T09:19:26;10.60;;;7.03;;
26407;SDS011;14583;43.604;1.364;2022-07-19T09:21:59;15.82;;;7.05;;
26407;SDS011;14583;43.604;1.364;2022-07-19T09:24:32;11.73;;;6.63;;
26407;SDS011;14583;43.604;1.364;2022-07-19T09:27:06;14.38;;;7.00;;
26407;SDS011;14583;43.604;1.364;2022-07-19T09:29:41;12.18;;;7.00;;
26407;SDS011;14583;43.604;1.364;2022-07-19T09:32:12;10.73;;;6.72;;
26407;SDS011;14583;43.604;1.364;2022-07-19T09:34:54;8.88;;;6.65;;
26407;SDS011;14583;43.604;1.364;2022-07-19T09:39:50;8.55;;;5.57;;
26407;SDS011;14583;43.604;1.364;2022-07-19T09:42:23;11.70;;;6.45;;
26407;SDS011;14583;43.604;1.364;2022-07-19T09:44:59;10.52;;;6.50;;
26407;SDS011;14583;43.604;1.364;2022-07-19T09:47:34;22.65;;;6.90;;
26407;SDS011;14583;43.604;1.364;2022-07-19T09:50:02;10.13;;;6.60;;
26407;SDS011;14583;43.604;1.364;2022-07-19T09:52:30;15.38;;;8.63;;
26407;SDS011;14583;43.604;1.364;2022-07-19T09:54:59;13.75;;;7.15;;
26407;SDS011;14583;43.604;1.364;2022-07-19T09:57:28;61.15;;;10.80;;
26407;SDS011;14583;43.604;1.364;2022-07-19T09:59:58;16.33;;;8.10;;
26407;SDS011;14583;43.604;1.364;2022-07-19T10:02:25;14.90;;;6.95;;
26407;SDS011;14583;43.604;1.364;2022-07-19T10:04:53;18.10;;;7.10;;
26407;SDS011;14583;43.604;1.364;2022-07-19T10:07:21;10.32;;;7.60;;
26407;SDS011;14583;43.604;1.364;2022-07-19T10:09:48;12.32;;;7.18;;
26407;SDS011;14583;43.604;1.364;2022-07-19T10:12:15;11.77;;;7.40;;
26407;SDS011;14583;43.604;1.364;2022-07-19T10:14:41;11.68;;;6.35;;
26407;SDS011;14583;43.604;1.364;2022-07-19T10:17:21;17.98;;;6.47;;
26407;SDS011;14583;43.604;1.364;2022-07-19T10:19:55;12.82;;;6.72;;
26407;SDS011;14583;43.604;1.364;2022-07-19T10:22:22;12.85;;;7.68;;
26407;SDS011;14583;43.604;1.364;2022-07-19T10:24:50;18.15;;;8.98;;
26407;SDS011;14583;43.604;1.364;2022-07-19T10:27:17;24.80;;;13.88;;
26407;SDS011;14583;43.604;1.364;2022-07-19T10:29:50;14.50;;;8.95;;
26407;SDS011;14583;43.604;1.364;2022-07-19T10:32:16;15.52;;;8.68;;
26407;SDS011;14583;43.604;1.364;2022-07-19T10:34:42;10.98;;;7.68;;
26407;SDS011;14583;43.604;1.364;2022-07-19T10:37:11;7.85;;;6.32;;
26407;SDS011;14583;43.604;1.364;2022-07-19T10:39:38;13.18;;;6.70;;
26407;SDS011;14583;43.604;1.364;2022-07-19T10:50:04;12.77;;;6.93;;
26407;SDS011;14583;43.604;1.364;2022-07-19T10:52:34;10.15;;;6.78;;
26407;SDS011;14583;43.604;1.364;2022-07-19T10:57:46;13.85;;;5.78;;
26407;SDS011;14583;43.604;1.364;2022-07-19T11:00:24;8.63;;;6.28;;
26407;SDS011;14583;43.604;1.364;2022-07-19T11:05:49;9.50;;;6.10;;
26407;SDS011;14583;43.604;1.364;2022-07-19T11:08:39;10.50;;;6.30;;
26407;SDS011;14583;43.604;1.364;2022-07-19T11:11:07;9.95;;;5.68;;
26407;SDS011;14583;43.604;1.364;2022-07-19T11:13:34;15.05;;;6.07;;
26407;SDS011;14583;43.604;1.364;2022-07-19T11:16:01;12.52;;;5.70;;
26407;SDS011;14583;43.604;1.364;2022-07-19T11:18:33;10.40;;;5.78;;
26407;SDS011;14583;43.604;1.364;2022-07-19T11:20:59;12.27;;;6.05;;
26407;SDS011;14583;43.604;1.364;2022-07-19T11:23:44;14.18;;;7.28;;
26407;SDS011;14583;43.604;1.364;2022-07-19T11:26:12;12.18;;;5.95;;
26407;SDS011;14583;43.604;1.364;2022-07-19T11:28:40;11.13;;;6.05;;
26407;SDS011;14583;43.604;1.364;2022-07-19T11:31:10;11.57;;;6.30;;
26407;SDS011;14583;43.604;1.364;2022-07-19T11:33:54;7.90;;;5.55;;
26407;SDS011;14583;43.604;1.364;2022-07-19T11:36:21;12.73;;;5.70;;
26407;SDS011;14583;43.604;1.364;2022-07-19T11:44:05;8.93;;;5.65;;
26407;SDS011;14583;43.604;1.364;2022-07-19T11:46:32;9.18;;;5.75;;
26407;SDS011;14583;43.604;1.364;2022-07-19T11:49:01;8.73;;;6.05;;
26407;SDS011;14583;43.604;1.364;2022-07-19T11:51:29;7.88;;;5.25;;
26407;SDS011;14583;43.604;1.364;2022-07-19T11:53:55;13.05;;;5.72;;
26407;SDS011;14583;43.604;1.364;2022-07-19T11:56:32;10.10;;;6.25;;
26407;SDS011;14583;43.604;1.364;2022-07-19T11:59:01;8.23;;;6.18;;
26407;SDS011;14583;43.604;1.364;2022-07-19T12:01:37;7.97;;;5.78;;
26407;SDS011;14583;43.604;1.364;2022-07-19T12:04:05;10.70;;;5.82;;
26407;SDS011;14583;43.604;1.364;2022-07-19T12:06:50;8.88;;;5.63;;
26407;SDS011;14583;43.604;1.364;2022-07-19T12:09:25;10.05;;;5.68;;
26407;SDS011;14583;43.604;1.364;2022-07-19T12:11:53;10.70;;;5.97;;
26407;SDS011;14583;43.604;1.364;2022-07-19T12:14:22;7.95;;;5.38;;
26407;SDS011;14583;43.604;1.364;2022-07-19T12:19:39;8.52;;;5.72;;
26407;SDS011;14583;43.604;1.364;2022-07-19T12:22:25;8.95;;;5.57;;
26407;SDS011;14583;43.604;1.364;2022-07-19T12:25:02;9.82;;;5.80;;
26407;SDS011;14583;43.604;1.364;2022-07-19T12:27:29;11.88;;;5.55;;
26407;SDS011;14583;43.604;1.364;2022-07-19T12:29:56;9.13;;;5.20;;
26407;SDS011;14583;43.604;1.364;2022-07-19T12:32:34;8.50;;;5.90;;
26407;SDS011;14583;43.604;1.364;2022-07-19T12:35:05;10.63;;;5.22;;
26407;SDS011;14583;43.604;1.364;2022-07-19T12:37:45;12.88;;;5.82;;
26407;SDS011;14583;43.604;1.364;2022-07-19T12:40:13;6.70;;;5.10;;
26407;SDS011;14583;43.604;1.364;2022-07-19T12:42:48;7.03;;;4.97;;
26407;SDS011;14583;43.604;1.364;2022-07-19T12:45:24;7.47;;;5.22;;
26407;SDS011;14583;43.604;1.364;2022-07-19T12:47:51;13.52;;;5.82;;
26407;SDS011;14583;43.604;1.364;2022-07-19T12:50:25;10.15;;;5.95;;
26407;SDS011;14583;43.604;1.364;2022-07-19T12:52:54;11.18;;;5.28;;
26407;SDS011;14583;43.604;1.364;2022-07-19T12:55:22;8.70;;;5.07;;
26407;SDS011;14583;43.604;1.364;2022-07-19T12:57:50;8.75;;;4.80;;
26407;SDS011;14583;43.604;1.364;2022-07-19T13:00:17;5.25;;;4.80;;
26407;SDS011;14583;43.604;1.364;2022-07-19T13:02:45;11.55;;;4.45;;
26407;SDS011;14583;43.604;1.364;2022-07-19T13:05:12;8.93;;;4.40;;
26407;SDS011;14583;43.604;1.364;2022-07-19T13:07:38;6.10;;;4.53;;
26407;SDS011;14583;43.604;1.364;2022-07-19T13:10:04;7.18;;;4.07;;
26407;SDS011;14583;43.604;1.364;2022-07-19T13:12:30;12.73;;;4.30;;
26407;SDS011;14583;43.604;1.364;2022-07-19T13:14:56;5.00;;;4.28;;
26407;SDS011;14583;43.604;1.364;2022-07-19T13:17:21;4.40;;;4.00;;
26407;SDS011;14583;43.604;1.364;2022-07-19T13:19:47;8.80;;;4.93;;
26407;SDS011;14583;43.604;1.364;2022-07-19T13:22:13;7.25;;;4.75;;
26407;SDS011;14583;43.604;1.364;2022-07-19T13:24:39;10.07;;;4.30;;
26407;SDS011;14583;43.604;1.364;2022-07-19T13:27:04;7.32;;;4.47;;
26407;SDS011;14583;43.604;1.364;2022-07-19T13:29:30;6.60;;;4.43;;
26407;SDS011;14583;43.604;1.364;2022-07-19T13:31:56;10.18;;;4.50;;
26407;SDS011;14583;43.604;1.364;2022-07-19T13:34:23;9.70;;;4.53;;
26407;SDS011;14583;43.604;1.364;2022-07-19T13:36:49;5.88;;;4.68;;
26407;SDS011;14583;43.604;1.364;2022-07-19T13:39:15;6.80;;;4.75;;
26407;SDS011;14583;43.604;1.364;2022-07-19T13:41:41;5.85;;;4.10;;
26407;SDS011;14583;43.604;1.364;2022-07-19T13:44:07;10.82;;;4.30;;
26407;SDS011;14583;43.604;1.364;2022-07-19T13:46:33;6.47;;;4.30;;
26407;SDS011;14583;43.604;1.364;2022-07-19T13:48:59;8.73;;;4.22;;
26407;SDS011;14583;43.604;1.364;2022-07-19T13:51:26;5.72;;;4.20;;
26407;SDS011;14583;43.604;1.364;2022-07-19T13:53:52;6.72;;;4.00;;
26407;SDS011;14583;43.604;1.364;2022-07-19T13:56:19;7.72;;;4.20;;
26407;SDS011;14583;43.604;1.364;2022-07-19T13:58:45;6.93;;;4.05;;
26407;SDS011;14583;43.604;1.364;2022-07-19T14:01:11;6.85;;;4.10;;
26407;SDS011;14583;43.604;1.364;2022-07-19T14:03:38;5.30;;;4.00;;
26407;SDS011;14583;43.604;1.364;2022-07-19T14:06:03;4.65;;;3.67;;
26407;SDS011;14583;43.604;1.364;2022-07-19T14:08:29;8.57;;;4.40;;
26407;SDS011;14583;43.604;1.364;2022-07-19T14:10:55;10.05;;;4.25;;
26407;SDS011;14583;43.604;1.364;2022-07-19T14:13:22;7.72;;;4.03;;
26407;SDS011;14583;43.604;1.364;2022-07-19T14:15:48;6.28;;;4.18;;
26407;SDS011;14583;43.604;1.364;2022-07-19T14:18:13;5.53;;;4.30;;
26407;SDS011;14583;43.604;1.364;2022-07-19T14:20:40;5.18;;;4.15;;
26407;SDS011;14583;43.604;1.364;2022-07-19T14:23:07;6.18;;;4.70;;
26407;SDS011;14583;43.604;1.364;2022-07-19T14:25:36;6.60;;;3.70;;
26407;SDS011;14583;43.604;1.364;2022-07-19T14:28:03;5.03;;;4.00;;
26407;SDS011;14583;43.604;1.364;2022-07-19T14:30:29;7.28;;;4.03;;
26407;SDS011;14583;43.604;1.364;2022-07-19T14:32:54;8.23;;;3.70;;
26407;SDS011;14583;43.604;1.364;2022-07-19T14:35:20;6.57;;;4.22;;
26407;SDS011;14583;43.604;1.364;2022-07-19T14:37:46;11.25;;;3.97;;
26407;SDS011;14583;43.604;1.364;2022-07-19T14:40:12;9.57;;;4.20;;
26407;SDS011;14583;43.604;1.364;2022-07-19T14:42:38;5.75;;;3.92;;
26407;SDS011;14583;43.604;1.364;2022-07-19T14:45:05;8.45;;;4.15;;
26407;SDS011;14583;43.604;1.364;2022-07-19T14:47:32;4.97;;;4.05;;
26407;SDS011;14583;43.604;1.364;2022-07-19T14:49:59;4.40;;;4.00;;
26407;SDS011;14583;43.604;1.364;2022-07-19T14:52:25;5.05;;;3.95;;
26407;SDS011;14583;43.604;1.364;2022-07-19T14:54:51;4.88;;;4.05;;
26407;SDS011;14583;43.604;1.364;2022-07-19T14:57:16;8.70;;;4.40;;
26407;SDS011;14583;43.604;1.364;2022-07-19T14:59:43;7.57;;;3.65;;
26407;SDS011;14583;43.604;1.364;2022-07-19T15:02:08;5.85;;;4.00;;
26407;SDS011;14583;43.604;1.364;2022-07-19T15:04:34;6.88;;;4.00;;
26407;SDS011;14583;43.604;1.364;2022-07-19T15:07:00;8.07;;;4.10;;